createdAt,value
2023-01-08T00:02:55.760Z,18.2
2023-01-08T00:42:33.807Z,18
2023-01-08T01:03:18.488Z,17.8
2023-01-08T01:23:17.738Z,17.8
2023-01-08T01:42:34.997Z,17.7
2023-01-08T02:02:34.219Z,17.6
2023-01-08T02:22:34.631Z,17.6
2023-01-08T02:42:33.888Z,17.5
2023-01-08T03:02:56.322Z,17.5
2023-01-08T03:23:16.921Z,17.4
2023-01-08T03:42:37.192Z,17.4
2023-01-08T04:03:00.279Z,17.3
2023-01-08T05:42:33.532Z,17.2
2023-01-08T06:02:55.928Z,17.3
2023-01-08T06:22:56.477Z,17.3
2023-01-08T06:43:18.458Z,17.3
2023-01-08T07:02:33.675Z,17.3
2023-01-08T07:22:56.191Z,17.5
2023-01-08T15:42:59.390Z,17.7
2023-01-08T16:23:18.997Z,17.7
2023-01-08T16:43:17.885Z,17.7
2023-01-08T17:03:19.563Z,17.7
2023-01-08T17:22:33.124Z,17.7
2023-01-08T17:43:17.902Z,17.8
2023-01-08T18:02:56.907Z,17.8
2023-01-08T18:22:34.059Z,18.1
2023-01-08T18:42:33.128Z,18
2023-01-08T19:02:56.224Z,18.2
2023-01-08T19:22:55.704Z,17.7
2023-01-08T19:43:18.230Z,18.1
2023-01-08T20:02:38.569Z,18.2
2023-01-08T20:23:22.028Z,18.3
2023-01-08T20:42:34.745Z,18.4
2023-01-08T21:03:18.996Z,18.4
2023-01-08T21:23:19.737Z,18.4
2023-01-08T21:42:56.922Z,18.3
2023-01-08T22:03:19.477Z,18.2
2023-01-08T22:22:56.787Z,18.2
2023-01-08T22:43:19.183Z,18.1
2023-01-08T23:02:59.276Z,18
2023-01-08T23:23:18.077Z,18
2023-01-08T23:42:57.283Z,18
